sensor_id;sensor_type;location;lat;lon;timestamp;P1;durP1;ratioP1;P2;durP2;ratioP2
2416;SDS011;1219;48.736;9.330;2023-05-24T00:01:12;4.30;;;3.90;;
2416;SDS011;1219;48.736;9.330;2023-05-24T00:03:38;3.63;;;3.33;;
2416;SDS011;1219;48.736;9.330;2023-05-24T00:06:04;5.13;;;3.30;;
2416;SDS011;1219;48.736;9.330;2023-05-24T00:08:31;3.60;;;3.30;;
2416;SDS011;1219;48.736;9.330;2023-05-24T00:10:57;4.40;;;3.80;;
2416;SDS011;1219;48.736;9.330;2023-05-24T00:13:23;4.33;;;3.97;;
2416;SDS011;1219;48.736;9.330;2023-05-24T00:15:49;4.27;;;3.70;;
2416;SDS011;1219;48.736;9.330;2023-05-24T00:18:15;4.50;;;4.20;;
2416;SDS011;1219;48.736;9.330;2023-05-24T00:20:44;3.77;;;3.47;;
2416;SDS011;1219;48.736;9.330;2023-05-24T00:23:10;3.67;;;3.43;;
2416;SDS011;1219;48.736;9.330;2023-05-24T00:25:36;3.87;;;3.47;;
2416;SDS011;1219;48.736;9.330;2023-05-24T00:28:02;4.17;;;3.77;;
2416;SDS011;1219;48.736;9.330;2023-05-24T00:30:28;4.53;;;3.87;;
2416;SDS011;1219;48.736;9.330;2023-05-24T00:32:53;3.90;;;3.60;;
2416;SDS011;1219;48.736;9.330;2023-05-24T00:35:19;6.30;;;3.30;;
2416;SDS011;1219;48.736;9.330;2023-05-24T00:37:45;4.30;;;3.47;;
2416;SDS011;1219;48.736;9.330;2023-05-24T00:40:12;3.60;;;3.30;;
2416;SDS011;1219;48.736;9.330;2023-05-24T00:42:38;5.37;;;3.53;;
2416;SDS011;1219;48.736;9.330;2023-05-24T00:45:04;3.53;;;3.13;;
2416;SDS011;1219;48.736;9.330;2023-05-24T00:47:30;6.50;;;3.50;;
2416;SDS011;1219;48.736;9.330;2023-05-24T00:49:56;3.87;;;3.57;;
2416;SDS011;1219;48.736;9.330;2023-05-24T00:52:23;4.00;;;3.70;;
2416;SDS011;1219;48.736;9.330;2023-05-24T00:54:48;4.20;;;3.40;;
2416;SDS011;1219;48.736;9.330;2023-05-24T00:57:15;3.93;;;3.53;;
2416;SDS011;1219;48.736;9.330;2023-05-24T00:59:42;4.07;;;3.77;;
2416;SDS011;1219;48.736;9.330;2023-05-24T01:02:09;8.43;;;3.87;;
2416;SDS011;1219;48.736;9.330;2023-05-24T01:04:36;6.07;;;3.00;;
2416;SDS011;1219;48.736;9.330;2023-05-24T01:09:49;3.57;;;3.37;;
2416;SDS011;1219;48.736;9.330;2023-05-24T01:12:22;5.53;;;3.50;;
2416;SDS011;1219;48.736;9.330;2023-05-24T01:15:14;3.40;;;3.13;;
2416;SDS011;1219;48.736;9.330;2023-05-24T01:20:10;3.80;;;3.40;;
2416;SDS011;1219;48.736;9.330;2023-05-24T01:25:18;9.20;;;3.70;;
2416;SDS011;1219;48.736;9.330;2023-05-24T01:27:47;5.97;;;5.10;;
2416;SDS011;1219;48.736;9.330;2023-05-24T01:30:14;4.20;;;3.87;;
2416;SDS011;1219;48.736;9.330;2023-05-24T01:32:41;5.03;;;3.57;;
2416;SDS011;1219;48.736;9.330;2023-05-24T01:35:07;4.93;;;3.50;;
2416;SDS011;1219;48.736;9.330;2023-05-24T01:37:33;3.87;;;3.67;;
2416;SDS011;1219;48.736;9.330;2023-05-24T01:39:59;4.17;;;3.77;;
2416;SDS011;1219;48.736;9.330;2023-05-24T01:42:35;3.97;;;3.67;;
2416;SDS011;1219;48.736;9.330;2023-05-24T01:47:33;4.63;;;4.17;;
2416;SDS011;1219;48.736;9.330;2023-05-24T01:50:13;4.53;;;4.03;;
2416;SDS011;1219;48.736;9.330;2023-05-24T01:52:40;9.77;;;3.70;;
2416;SDS011;1219;48.736;9.330;2023-05-24T01:55:09;3.73;;;3.30;;
2416;SDS011;1219;48.736;9.330;2023-05-24T01:57:35;4.13;;;3.57;;
2416;SDS011;1219;48.736;9.330;2023-05-24T02:00:02;6.67;;;3.43;;
2416;SDS011;1219;48.736;9.330;2023-05-24T02:02:29;6.33;;;3.57;;
2416;SDS011;1219;48.736;9.330;2023-05-24T02:04:55;10.03;;;3.63;;
2416;SDS011;1219;48.736;9.330;2023-05-24T02:07:22;4.27;;;3.87;;
2416;SDS011;1219;48.736;9.330;2023-05-24T02:09:49;5.80;;;3.90;;
2416;SDS011;1219;48.736;9.330;2023-05-24T02:12:15;11.83;;;4.40;;
2416;SDS011;1219;48.736;9.330;2023-05-24T02:14:41;7.73;;;4.30;;
2416;SDS011;1219;48.736;9.330;2023-05-24T02:17:07;6.53;;;3.97;;
2416;SDS011;1219;48.736;9.330;2023-05-24T02:19:33;6.40;;;4.17;;
2416;SDS011;1219;48.736;9.330;2023-05-24T02:22:00;6.80;;;3.57;;
2416;SDS011;1219;48.736;9.330;2023-05-24T02:24:27;6.63;;;4.37;;
2416;SDS011;1219;48.736;9.330;2023-05-24T02:26:53;5.10;;;3.73;;
2416;SDS011;1219;48.736;9.330;2023-05-24T02:29:19;7.20;;;5.17;;
2416;SDS011;1219;48.736;9.330;2023-05-24T02:31:46;4.63;;;3.70;;
2416;SDS011;1219;48.736;9.330;2023-05-24T02:34:15;3.90;;;3.60;;
2416;SDS011;1219;48.736;9.330;2023-05-24T02:36:41;4.93;;;4.33;;
2416;SDS011;1219;48.736;9.330;2023-05-24T02:39:09;11.57;;;4.83;;
2416;SDS011;1219;48.736;9.330;2023-05-24T02:41:35;5.27;;;3.97;;
2416;SDS011;1219;48.736;9.330;2023-05-24T02:44:01;5.17;;;4.07;;
2416;SDS011;1219;48.736;9.330;2023-05-24T02:46:27;5.27;;;4.30;;
2416;SDS011;1219;48.736;9.330;2023-05-24T02:48:53;6.33;;;4.50;;
2416;SDS011;1219;48.736;9.330;2023-05-24T02:51:19;10.03;;;4.60;;
2416;SDS011;1219;48.736;9.330;2023-05-24T02:53:45;9.43;;;4.83;;
2416;SDS011;1219;48.736;9.330;2023-05-24T02:56:11;15.57;;;4.67;;
2416;SDS011;1219;48.736;9.330;2023-05-24T02:58:43;5.50;;;4.53;;
2416;SDS011;1219;48.736;9.330;2023-05-24T03:01:10;6.80;;;3.97;;
2416;SDS011;1219;48.736;9.330;2023-05-24T03:03:37;6.53;;;5.27;;
2416;SDS011;1219;48.736;9.330;2023-05-24T03:06:03;7.23;;;5.03;;
2416;SDS011;1219;48.736;9.330;2023-05-24T03:08:30;8.43;;;4.47;;
2416;SDS011;1219;48.736;9.330;2023-05-24T03:10:56;7.20;;;4.47;;
2416;SDS011;1219;48.736;9.330;2023-05-24T03:13:22;4.93;;;4.27;;
2416;SDS011;1219;48.736;9.330;2023-05-24T03:15:48;9.27;;;5.50;;
2416;SDS011;1219;48.736;9.330;2023-05-24T03:18:14;8.00;;;4.00;;
2416;SDS011;1219;48.736;9.330;2023-05-24T03:20:40;6.77;;;5.27;;
2416;SDS011;1219;48.736;9.330;2023-05-24T03:23:06;7.80;;;5.00;;
2416;SDS011;1219;48.736;9.330;2023-05-24T03:25:33;12.20;;;5.10;;
2416;SDS011;1219;48.736;9.330;2023-05-24T03:27:59;6.07;;;4.27;;
2416;SDS011;1219;48.736;9.330;2023-05-24T03:30:27;5.37;;;4.80;;
2416;SDS011;1219;48.736;9.330;2023-05-24T03:32:53;6.47;;;4.67;;
2416;SDS011;1219;48.736;9.330;2023-05-24T03:35:19;9.60;;;5.27;;
2416;SDS011;1219;48.736;9.330;2023-05-24T03:37:45;5.40;;;4.33;;
2416;SDS011;1219;48.736;9.330;2023-05-24T03:40:11;7.77;;;5.20;;
2416;SDS011;1219;48.736;9.330;2023-05-24T03:42:37;5.03;;;4.40;;
2416;SDS011;1219;48.736;9.330;2023-05-24T03:45:03;13.53;;;6.13;;
2416;SDS011;1219;48.736;9.330;2023-05-24T03:47:29;5.47;;;4.87;;
2416;SDS011;1219;48.736;9.330;2023-05-24T03:49:56;4.97;;;4.47;;
2416;SDS011;1219;48.736;9.330;2023-05-24T03:52:22;7.53;;;5.07;;
2416;SDS011;1219;48.736;9.330;2023-05-24T03:54:48;10.03;;;4.17;;
2416;SDS011;1219;48.736;9.330;2023-05-24T03:57:14;9.30;;;5.27;;
2416;SDS011;1219;48.736;9.330;2023-05-24T03:59:40;5.50;;;5.03;;
2416;SDS011;1219;48.736;9.330;2023-05-24T04:02:06;4.50;;;4.03;;
2416;SDS011;1219;48.736;9.330;2023-05-24T04:04:32;7.13;;;4.63;;
2416;SDS011;1219;48.736;9.330;2023-05-24T04:06:58;11.90;;;5.03;;
2416;SDS011;1219;48.736;9.330;2023-05-24T04:09:24;5.23;;;4.20;;
2416;SDS011;1219;48.736;9.330;2023-05-24T04:11:50;8.63;;;5.20;;
2416;SDS011;1219;48.736;9.330;2023-05-24T04:14:16;7.67;;;5.20;;
2416;SDS011;1219;48.736;9.330;2023-05-24T04:16:42;7.03;;;5.20;;
2416;SDS011;1219;48.736;9.330;2023-05-24T04:19:09;5.20;;;4.77;;
2416;SDS011;1219;48.736;9.330;2023-05-24T04:21:35;13.90;;;4.50;;
2416;SDS011;1219;48.736;9.330;2023-05-24T04:24:01;9.23;;;4.20;;
2416;SDS011;1219;48.736;9.330;2023-05-24T04:26:28;6.77;;;5.00;;
2416;SDS011;1219;48.736;9.330;2023-05-24T04:28:54;4.70;;;4.30;;
2416;SDS011;1219;48.736;9.330;2023-05-24T04:31:20;7.27;;;4.20;;
2416;SDS011;1219;48.736;9.330;2023-05-24T04:33:46;6.37;;;4.80;;
2416;SDS011;1219;48.736;9.330;2023-05-24T04:36:14;9.90;;;5.40;;
2416;SDS011;1219;48.736;9.330;2023-05-24T04:38:41;6.17;;;5.57;;
2416;SDS011;1219;48.736;9.330;2023-05-24T04:41:09;6.43;;;4.93;;
2416;SDS011;1219;48.736;9.330;2023-05-24T04:43:36;6.90;;;4.73;;
2416;SDS011;1219;48.736;9.330;2023-05-24T04:46:02;4.70;;;3.93;;
2416;SDS011;1219;48.736;9.330;2023-05-24T04:48:28;5.93;;;5.00;;
2416;SDS011;1219;48.736;9.330;2023-05-24T04:50:55;9.57;;;5.10;;
2416;SDS011;1219;48.736;9.330;2023-05-24T04:53:22;5.47;;;4.97;;
2416;SDS011;1219;48.736;9.330;2023-05-24T04:55:48;5.83;;;5.33;;
2416;SDS011;1219;48.736;9.330;2023-05-24T04:58:15;5.87;;;5.20;;
2416;SDS011;1219;48.736;9.330;2023-05-24T05:00:41;5.90;;;4.20;;
2416;SDS011;1219;48.736;9.330;2023-05-24T05:03:07;6.00;;;5.00;;
2416;SDS011;1219;48.736;9.330;2023-05-24T05:05:33;5.57;;;5.07;;
2416;SDS011;1219;48.736;9.330;2023-05-24T05:07:59;5.03;;;4.53;;
2416;SDS011;1219;48.736;9.330;2023-05-24T05:10:25;6.30;;;4.47;;
2416;SDS011;1219;48.736;9.330;2023-05-24T05:12:51;8.23;;;5.03;;
2416;SDS011;1219;48.736;9.330;2023-05-24T05:15:19;8.67;;;5.17;;
2416;SDS011;1219;48.736;9.330;2023-05-24T05:17:45;6.13;;;4.73;;
2416;SDS011;1219;48.736;9.330;2023-05-24T05:20:11;10.73;;;6.37;;
2416;SDS011;1219;48.736;9.330;2023-05-24T05:22:38;5.17;;;4.73;;
2416;SDS011;1219;48.736;9.330;2023-05-24T05:25:04;9.70;;;5.43;;
2416;SDS011;1219;48.736;9.330;2023-05-24T05:27:30;7.63;;;5.60;;
2416;SDS011;1219;48.736;9.330;2023-05-24T05:29:56;6.07;;;4.60;;
2416;SDS011;1219;48.736;9.330;2023-05-24T05:32:22;5.77;;;5.37;;
2416;SDS011;1219;48.736;9.330;2023-05-24T05:34:48;6.50;;;4.50;;
2416;SDS011;1219;48.736;9.330;2023-05-24T05:37:14;7.40;;;5.10;;
2416;SDS011;1219;48.736;9.330;2023-05-24T05:39:40;6.87;;;5.40;;
2416;SDS011;1219;48.736;9.330;2023-05-24T05:42:05;7.60;;;5.57;;
2416;SDS011;1219;48.736;9.330;2023-05-24T05:44:31;6.93;;;5.10;;
2416;SDS011;1219;48.736;9.330;2023-05-24T05:46:57;6.93;;;4.83;;
2416;SDS011;1219;48.736;9.330;2023-05-24T05:49:23;5.07;;;4.57;;
2416;SDS011;1219;48.736;9.330;2023-05-24T05:51:49;15.30;;;6.00;;
2416;SDS011;1219;48.736;9.330;2023-05-24T05:54:17;14.17;;;4.80;;
2416;SDS011;1219;48.736;9.330;2023-05-24T05:56:43;6.70;;;5.17;;
2416;SDS011;1219;48.736;9.330;2023-05-24T05:59:11;7.23;;;5.63;;
2416;SDS011;1219;48.736;9.330;2023-05-24T06:01:38;8.23;;;5.30;;
2416;SDS011;1219;48.736;9.330;2023-05-24T06:04:04;6.70;;;5.30;;
2416;SDS011;1219;48.736;9.330;2023-05-24T06:06:30;5.70;;;4.50;;
2416;SDS011;1219;48.736;9.330;2023-05-24T06:08:57;9.00;;;4.80;;
2416;SDS011;1219;48.736;9.330;2023-05-24T06:11:23;8.53;;;5.20;;
2416;SDS011;1219;48.736;9.330;2023-05-24T06:13:49;6.17;;;4.80;;
2416;SDS011;1219;48.736;9.330;2023-05-24T06:16:15;8.40;;;5.70;;
2416;SDS011;1219;48.736;9.330;2023-05-24T06:18:42;8.50;;;4.90;;
2416;SDS011;1219;48.736;9.330;2023-05-24T06:21:08;10.40;;;5.10;;
2416;SDS011;1219;48.736;9.330;2023-05-24T06:23:35;9.40;;;4.83;;
2416;SDS011;1219;48.736;9.330;2023-05-24T06:26:02;7.17;;;5.40;;
2416;SDS011;1219;48.736;9.330;2023-05-24T06:28:28;5.77;;;4.50;;
2416;SDS011;1219;48.736;9.330;2023-05-24T06:30:54;5.07;;;4.37;;
2416;SDS011;1219;48.736;9.330;2023-05-24T06:33:20;8.20;;;4.53;;
2416;SDS011;1219;48.736;9.330;2023-05-24T06:35:46;5.10;;;4.50;;
2416;SDS011;1219;48.736;9.330;2023-05-24T06:38:12;9.33;;;4.53;;
2416;SDS011;1219;48.736;9.330;2023-05-24T06:40:38;5.40;;;5.00;;
2416;SDS011;1219;48.736;9.330;2023-05-24T06:43:04;6.17;;;4.40;;
2416;SDS011;1219;48.736;9.330;2023-05-24T06:45:30;5.30;;;4.30;;
2416;SDS011;1219;48.736;9.330;2023-05-24T06:47:56;8.97;;;4.60;;
2416;SDS011;1219;48.736;9.330;2023-05-24T06:50:22;6.07;;;5.47;;
2416;SDS011;1219;48.736;9.330;2023-05-24T06:52:49;10.20;;;5.40;;
2416;SDS011;1219;48.736;9.330;2023-05-24T06:55:15;11.03;;;4.80;;
2416;SDS011;1219;48.736;9.330;2023-05-24T06:57:41;6.00;;;4.40;;
2416;SDS011;1219;48.736;9.330;2023-05-24T07:00:07;8.00;;;4.93;;
2416;SDS011;1219;48.736;9.330;2023-05-24T07:02:36;9.33;;;6.47;;
2416;SDS011;1219;48.736;9.330;2023-05-24T07:05:02;4.77;;;4.37;;
2416;SDS011;1219;48.736;9.330;2023-05-24T07:07:28;5.20;;;4.27;;
2416;SDS011;1219;48.736;9.330;2023-05-24T07:09:54;7.23;;;5.50;;
2416;SDS011;1219;48.736;9.330;2023-05-24T07:12:20;6.30;;;5.10;;
2416;SDS011;1219;48.736;9.330;2023-05-24T07:14:47;9.17;;;5.23;;
2416;SDS011;1219;48.736;9.330;2023-05-24T07:17:13;8.10;;;5.10;;
2416;SDS011;1219;48.736;9.330;2023-05-24T07:19:39;6.93;;;4.17;;
2416;SDS011;1219;48.736;9.330;2023-05-24T07:22:05;6.13;;;4.70;;
2416;SDS011;1219;48.736;9.330;2023-05-24T07:24:32;6.63;;;5.10;;
2416;SDS011;1219;48.736;9.330;2023-05-24T07:26:58;15.90;;;5.30;;
2416;SDS011;1219;48.736;9.330;2023-05-24T07:29:24;9.27;;;5.27;;
2416;SDS011;1219;48.736;9.330;2023-05-24T07:31:50;7.33;;;6.20;;
2416;SDS011;1219;48.736;9.330;2023-05-24T07:34:17;6.60;;;4.90;;
2416;SDS011;1219;48.736;9.330;2023-05-24T07:36:45;7.90;;;5.17;;
2416;SDS011;1219;48.736;9.330;2023-05-24T07:39:12;7.60;;;5.13;;
2416;SDS011;1219;48.736;9.330;2023-05-24T07:41:39;7.43;;;5.10;;
2416;SDS011;1219;48.736;9.330;2023-05-24T07:44:06;6.77;;;5.07;;
2416;SDS011;1219;48.736;9.330;2023-05-24T07:46:32;8.80;;;5.80;;
2416;SDS011;1219;48.736;9.330;2023-05-24T07:48:59;12.03;;;4.40;;
2416;SDS011;1219;48.736;9.330;2023-05-24T07:51:25;8.83;;;5.37;;
2416;SDS011;1219;48.736;9.330;2023-05-24T07:53:51;10.10;;;5.60;;
2416;SDS011;1219;48.736;9.330;2023-05-24T07:56:17;7.20;;;4.80;;
2416;SDS011;1219;48.736;9.330;2023-05-24T07:58:43;16.53;;;5.20;;
2416;SDS011;1219;48.736;9.330;2023-05-24T08:01:10;11.97;;;5.20;;
2416;SDS011;1219;48.736;9.330;2023-05-24T08:03:37;11.70;;;4.50;;
2416;SDS011;1219;48.736;9.330;2023-05-24T08:06:03;6.00;;;5.40;;
2416;SDS011;1219;48.736;9.330;2023-05-24T08:08:29;6.60;;;5.20;;
2416;SDS011;1219;48.736;9.330;2023-05-24T08:10:55;8.23;;;5.43;;
2416;SDS011;1219;48.736;9.330;2023-05-24T08:13:21;9.93;;;4.93;;
2416;SDS011;1219;48.736;9.330;2023-05-24T08:15:48;8.30;;;5.40;;
2416;SDS011;1219;48.736;9.330;2023-05-24T08:18:14;7.73;;;5.20;;
2416;SDS011;1219;48.736;9.330;2023-05-24T08:20:40;13.53;;;5.80;;
2416;SDS011;1219;48.736;9.330;2023-05-24T08:23:06;6.83;;;4.67;;
2416;SDS011;1219;48.736;9.330;2023-05-24T08:25:32;5.73;;;5.23;;
2416;SDS011;1219;48.736;9.330;2023-05-24T08:27:58;5.60;;;4.73;;
2416;SDS011;1219;48.736;9.330;2023-05-24T08:30:24;8.23;;;4.50;;
2416;SDS011;1219;48.736;9.330;2023-05-24T08:32:50;6.47;;;5.30;;
2416;SDS011;1219;48.736;9.330;2023-05-24T08:35:16;7.17;;;5.80;;
2416;SDS011;1219;48.736;9.330;2023-05-24T08:37:42;7.20;;;5.10;;
2416;SDS011;1219;48.736;9.330;2023-05-24T08:40:08;7.23;;;5.70;;
2416;SDS011;1219;48.736;9.330;2023-05-24T08:42:35;5.17;;;4.67;;
2416;SDS011;1219;48.736;9.330;2023-05-24T08:45:03;8.53;;;4.87;;
2416;SDS011;1219;48.736;9.330;2023-05-24T08:47:29;8.97;;;5.10;;
2416;SDS011;1219;48.736;9.330;2023-05-24T08:49:55;9.70;;;4.73;;
2416;SDS011;1219;48.736;9.330;2023-05-24T08:52:22;5.70;;;4.40;;
2416;SDS011;1219;48.736;9.330;2023-05-24T08:54:48;5.37;;;4.83;;
2416;SDS011;1219;48.736;9.330;2023-05-24T08:57:14;11.17;;;4.93;;
2416;SDS011;1219;48.736;9.330;2023-05-24T08:59:41;9.27;;;4.90;;
2416;SDS011;1219;48.736;9.330;2023-05-24T09:02:10;6.53;;;5.20;;
2416;SDS011;1219;48.736;9.330;2023-05-24T09:04:38;6.40;;;5.00;;
2416;SDS011;1219;48.736;9.330;2023-05-24T09:07:04;6.87;;;4.97;;
2416;SDS011;1219;48.736;9.330;2023-05-24T09:09:31;6.37;;;4.73;;
2416;SDS011;1219;48.736;9.330;2023-05-24T09:11:59;11.50;;;5.90;;
2416;SDS011;1219;48.736;9.330;2023-05-24T09:14:26;7.07;;;4.80;;
2416;SDS011;1219;48.736;9.330;2023-05-24T09:16:52;10.07;;;5.23;;
2416;SDS011;1219;48.736;9.330;2023-05-24T09:19:18;10.43;;;4.87;;
2416;SDS011;1219;48.736;9.330;2023-05-24T09:21:44;9.83;;;5.17;;
2416;SDS011;1219;48.736;9.330;2023-05-24T09:24:10;7.37;;;4.57;;
2416;SDS011;1219;48.736;9.330;2023-05-24T09:26:36;8.00;;;5.03;;
2416;SDS011;1219;48.736;9.330;2023-05-24T09:29:06;6.40;;;4.10;;
2416;SDS011;1219;48.736;9.330;2023-05-24T09:31:35;12.13;;;5.30;;
2416;SDS011;1219;48.736;9.330;2023-05-24T09:34:02;8.27;;;4.90;;
2416;SDS011;1219;48.736;9.330;2023-05-24T09:36:29;9.40;;;5.33;;
2416;SDS011;1219;48.736;9.330;2023-05-24T09:39:07;6.37;;;5.17;;
2416;SDS011;1219;48.736;9.330;2023-05-24T09:41:33;4.83;;;4.43;;
2416;SDS011;1219;48.736;9.330;2023-05-24T09:44:00;7.83;;;4.57;;
2416;SDS011;1219;48.736;9.330;2023-05-24T09:46:27;7.13;;;4.97;;
2416;SDS011;1219;48.736;9.330;2023-05-24T09:48:59;6.03;;;4.40;;
2416;SDS011;1219;48.736;9.330;2023-05-24T09:51:30;9.50;;;5.80;;
2416;SDS011;1219;48.736;9.330;2023-05-24T09:53:57;8.27;;;5.13;;
2416;SDS011;1219;48.736;9.330;2023-05-24T09:56:23;6.23;;;4.70;;
2416;SDS011;1219;48.736;9.330;2023-05-24T09:58:49;5.67;;;4.60;;
2416;SDS011;1219;48.736;9.330;2023-05-24T10:01:15;7.13;;;4.57;;
2416;SDS011;1219;48.736;9.330;2023-05-24T10:03:55;4.50;;;4.10;;
2416;SDS011;1219;48.736;9.330;2023-05-24T10:06:22;5.80;;;4.40;;
2416;SDS011;1219;48.736;9.330;2023-05-24T10:08:48;9.63;;;5.60;;
2416;SDS011;1219;48.736;9.330;2023-05-24T10:11:15;11.37;;;5.90;;
2416;SDS011;1219;48.736;9.330;2023-05-24T10:13:41;6.73;;;5.97;;
2416;SDS011;1219;48.736;9.330;2023-05-24T10:16:08;8.33;;;5.30;;
2416;SDS011;1219;48.736;9.330;2023-05-24T10:18:34;6.83;;;4.70;;
2416;SDS011;1219;48.736;9.330;2023-05-24T10:21:00;13.23;;;5.73;;
2416;SDS011;1219;48.736;9.330;2023-05-24T10:23:30;9.47;;;5.70;;
2416;SDS011;1219;48.736;9.330;2023-05-24T10:26:05;9.43;;;6.10;;
2416;SDS011;1219;48.736;9.330;2023-05-24T10:31:14;8.97;;;5.70;;
2416;SDS011;1219;48.736;9.330;2023-05-24T10:33:42;9.60;;;6.10;;
2416;SDS011;1219;48.736;9.330;2023-05-24T10:36:09;6.90;;;5.63;;
2416;SDS011;1219;48.736;9.330;2023-05-24T10:38:36;16.63;;;6.00;;
2416;SDS011;1219;48.736;9.330;2023-05-24T10:41:06;8.00;;;5.30;;
2416;SDS011;1219;48.736;9.330;2023-05-24T10:43:33;7.80;;;5.53;;
2416;SDS011;1219;48.736;9.330;2023-05-24T10:46:03;11.73;;;5.13;;
2416;SDS011;1219;48.736;9.330;2023-05-24T10:50:55;10.73;;;5.40;;
2416;SDS011;1219;48.736;9.330;2023-05-24T10:53:21;8.97;;;6.10;;
2416;SDS011;1219;48.736;9.330;2023-05-24T10:55:57;9.30;;;6.60;;
2416;SDS011;1219;48.736;9.330;2023-05-24T10:58:27;6.17;;;5.60;;
2416;SDS011;1219;48.736;9.330;2023-05-24T11:01:30;12.20;;;5.77;;
2416;SDS011;1219;48.736;9.330;2023-05-24T11:04:14;8.53;;;5.00;;
2416;SDS011;1219;48.736;9.330;2023-05-24T11:06:47;6.60;;;5.17;;
2416;SDS011;1219;48.736;9.330;2023-05-24T11:09:17;8.30;;;6.20;;
2416;SDS011;1219;48.736;9.330;2023-05-24T11:11:47;7.47;;;5.60;;
2416;SDS011;1219;48.736;9.330;2023-05-24T11:14:16;5.83;;;4.83;;
2416;SDS011;1219;48.736;9.330;2023-05-24T11:16:44;12.83;;;6.77;;
2416;SDS011;1219;48.736;9.330;2023-05-24T11:19:11;9.60;;;5.67;;
2416;SDS011;1219;48.736;9.330;2023-05-24T11:21:38;8.83;;;5.87;;
2416;SDS011;1219;48.736;9.330;2023-05-24T11:24:05;8.97;;;5.90;;
2416;SDS011;1219;48.736;9.330;2023-05-24T11:26:31;13.40;;;6.83;;
2416;SDS011;1219;48.736;9.330;2023-05-24T11:28:59;6.00;;;5.40;;
2416;SDS011;1219;48.736;9.330;2023-05-24T11:31:28;13.00;;;5.00;;
2416;SDS011;1219;48.736;9.330;2023-05-24T11:33:55;9.20;;;6.27;;
2416;SDS011;1219;48.736;9.330;2023-05-24T11:36:21;6.93;;;5.47;;
2416;SDS011;1219;48.736;9.330;2023-05-24T11:38:47;16.97;;;6.83;;
2416;SDS011;1219;48.736;9.330;2023-05-24T11:41:13;9.33;;;5.80;;
2416;SDS011;1219;48.736;9.330;2023-05-24T11:43:39;7.27;;;5.07;;
2416;SDS011;1219;48.736;9.330;2023-05-24T11:46:06;9.00;;;5.20;;
2416;SDS011;1219;48.736;9.330;2023-05-24T11:48:32;6.27;;;5.60;;
2416;SDS011;1219;48.736;9.330;2023-05-24T11:50:58;5.60;;;5.10;;
2416;SDS011;1219;48.736;9.330;2023-05-24T11:53:24;8.90;;;5.40;;
2416;SDS011;1219;48.736;9.330;2023-05-24T11:55:51;9.03;;;5.10;;
2416;SDS011;1219;48.736;9.330;2023-05-24T12:00:45;8.73;;;5.20;;
2416;SDS011;1219;48.736;9.330;2023-05-24T12:03:11;9.67;;;5.83;;
2416;SDS011;1219;48.736;9.330;2023-05-24T12:05:56;8.57;;;5.40;;
2416;SDS011;1219;48.736;9.330;2023-05-24T12:08:22;10.70;;;5.10;;
2416;SDS011;1219;48.736;9.330;2023-05-24T12:10:48;6.77;;;5.27;;
2416;SDS011;1219;48.736;9.330;2023-05-24T12:13:22;5.87;;;5.00;;
2416;SDS011;1219;48.736;9.330;2023-05-24T12:15:52;4.57;;;4.17;;
2416;SDS011;1219;48.736;9.330;2023-05-24T12:18:19;9.60;;;5.00;;
2416;SDS011;1219;48.736;9.330;2023-05-24T12:20:45;4.83;;;4.53;;
2416;SDS011;1219;48.736;9.330;2023-05-24T12:23:11;7.83;;;4.10;;
2416;SDS011;1219;48.736;9.330;2023-05-24T12:25:38;9.30;;;4.90;;
2416;SDS011;1219;48.736;9.330;2023-05-24T12:28:04;6.83;;;4.30;;
2416;SDS011;1219;48.736;9.330;2023-05-24T12:30:30;8.00;;;4.33;;
2416;SDS011;1219;48.736;9.330;2023-05-24T12:32:56;7.80;;;4.97;;
2416;SDS011;1219;48.736;9.330;2023-05-24T12:35:22;5.07;;;4.00;;
2416;SDS011;1219;48.736;9.330;2023-05-24T12:37:48;6.23;;;4.97;;
2416;SDS011;1219;48.736;9.330;2023-05-24T12:40:15;5.70;;;4.30;;
2416;SDS011;1219;48.736;9.330;2023-05-24T12:42:44;10.03;;;3.80;;
2416;SDS011;1219;48.736;9.330;2023-05-24T12:45:10;8.30;;;4.70;;
2416;SDS011;1219;48.736;9.330;2023-05-24T12:47:36;12.53;;;4.00;;
2416;SDS011;1219;48.736;9.330;2023-05-24T12:50:02;4.40;;;3.30;;
2416;SDS011;1219;48.736;9.330;2023-05-24T12:52:28;5.50;;;4.30;;
2416;SDS011;1219;48.736;9.330;2023-05-24T12:54:54;4.90;;;2.90;;
2416;SDS011;1219;48.736;9.330;2023-05-24T12:57:20;5.47;;;2.67;;
2416;SDS011;1219;48.736;9.330;2023-05-24T12:59:46;3.87;;;3.07;;
2416;SDS011;1219;48.736;9.330;2023-05-24T13:02:12;3.87;;;2.20;;
2416;SDS011;1219;48.736;9.330;2023-05-24T13:04:39;6.00;;;2.50;;
2416;SDS011;1219;48.736;9.330;2023-05-24T13:07:04;3.80;;;2.70;;
2416;SDS011;1219;48.736;9.330;2023-05-24T13:09:30;6.40;;;2.77;;
2416;SDS011;1219;48.736;9.330;2023-05-24T13:11:58;2.73;;;2.10;;
2416;SDS011;1219;48.736;9.330;2023-05-24T13:14:24;4.00;;;2.50;;
2416;SDS011;1219;48.736;9.330;2023-05-24T13:16:49;5.83;;;2.43;;
2416;SDS011;1219;48.736;9.330;2023-05-24T13:19:16;3.57;;;2.00;;
2416;SDS011;1219;48.736;9.330;2023-05-24T13:21:42;4.10;;;2.13;;
2416;SDS011;1219;48.736;9.330;2023-05-24T13:24:08;2.60;;;2.30;;
2416;SDS011;1219;48.736;9.330;2023-05-24T13:26:34;5.40;;;3.00;;
2416;SDS011;1219;48.736;9.330;2023-05-24T13:29:02;2.70;;;2.50;;
2416;SDS011;1219;48.736;9.330;2023-05-24T13:31:29;5.40;;;2.67;;
2416;SDS011;1219;48.736;9.330;2023-05-24T13:33:55;3.90;;;2.67;;
2416;SDS011;1219;48.736;9.330;2023-05-24T13:36:21;4.47;;;2.40;;
2416;SDS011;1219;48.736;9.330;2023-05-24T13:38:47;4.53;;;2.60;;
2416;SDS011;1219;48.736;9.330;2023-05-24T13:41:13;4.43;;;2.50;;
2416;SDS011;1219;48.736;9.330;2023-05-24T13:43:39;4.47;;;2.83;;
2416;SDS011;1219;48.736;9.330;2023-05-24T13:46:05;7.90;;;2.53;;
2416;SDS011;1219;48.736;9.330;2023-05-24T13:48:31;5.47;;;3.33;;
2416;SDS011;1219;48.736;9.330;2023-05-24T13:50:57;9.40;;;3.07;;
2416;SDS011;1219;48.736;9.330;2023-05-24T13:53:23;2.57;;;2.37;;
2416;SDS011;1219;48.736;9.330;2023-05-24T13:55:50;4.47;;;3.60;;
2416;SDS011;1219;48.736;9.330;2023-05-24T13:58:16;3.80;;;3.00;;
2416;SDS011;1219;48.736;9.330;2023-05-24T14:00:42;2.87;;;2.60;;
2416;SDS011;1219;48.736;9.330;2023-05-24T14:03:08;3.13;;;2.83;;
2416;SDS011;1219;48.736;9.330;2023-05-24T14:05:36;4.43;;;3.30;;
2416;SDS011;1219;48.736;9.330;2023-05-24T14:08:03;4.17;;;2.73;;
2416;SDS011;1219;48.736;9.330;2023-05-24T14:10:31;3.57;;;3.07;;
2416;SDS011;1219;48.736;9.330;2023-05-24T14:12:57;5.27;;;3.00;;
2416;SDS011;1219;48.736;9.330;2023-05-24T14:15:23;3.80;;;3.10;;
2416;SDS011;1219;48.736;9.330;2023-05-24T14:17:49;6.00;;;2.90;;
2416;SDS011;1219;48.736;9.330;2023-05-24T14:20:15;4.73;;;3.80;;
2416;SDS011;1219;48.736;9.330;2023-05-24T14:22:41;6.60;;;4.57;;
2416;SDS011;1219;48.736;9.330;2023-05-24T14:25:07;3.03;;;2.70;;
2416;SDS011;1219;48.736;9.330;2023-05-24T14:27:33;4.83;;;2.87;;
2416;SDS011;1219;48.736;9.330;2023-05-24T14:29:59;2.50;;;2.23;;
2416;SDS011;1219;48.736;9.330;2023-05-24T14:32:25;4.20;;;2.80;;
2416;SDS011;1219;48.736;9.330;2023-05-24T14:34:51;6.23;;;3.13;;
2416;SDS011;1219;48.736;9.330;2023-05-24T14:37:17;4.53;;;2.33;;
2416;SDS011;1219;48.736;9.330;2023-05-24T14:39:43;4.03;;;2.97;;
2416;SDS011;1219;48.736;9.330;2023-05-24T14:42:09;3.87;;;2.00;;
2416;SDS011;1219;48.736;9.330;2023-05-24T14:44:35;3.83;;;3.03;;
2416;SDS011;1219;48.736;9.330;2023-05-24T14:47:01;3.20;;;2.80;;
2416;SDS011;1219;48.736;9.330;2023-05-24T14:49:27;4.53;;;2.50;;
2416;SDS011;1219;48.736;9.330;2023-05-24T14:51:53;3.97;;;2.50;;
2416;SDS011;1219;48.736;9.330;2023-05-24T14:54:19;4.77;;;2.67;;
2416;SDS011;1219;48.736;9.330;2023-05-24T14:56:45;3.40;;;2.37;;
2416;SDS011;1219;48.736;9.330;2023-05-24T14:59:11;3.93;;;3.47;;
2416;SDS011;1219;48.736;9.330;2023-05-24T15:01:37;3.90;;;3.27;;
2416;SDS011;1219;48.736;9.330;2023-05-24T15:04:03;5.40;;;3.60;;
2416;SDS011;1219;48.736;9.330;2023-05-24T15:06:29;4.77;;;3.50;;
2416;SDS011;1219;48.736;9.330;2023-05-24T15:08:58;3.47;;;2.93;;
2416;SDS011;1219;48.736;9.330;2023-05-24T15:11:24;3.40;;;3.10;;
2416;SDS011;1219;48.736;9.330;2023-05-24T15:13:50;3.70;;;2.80;;
2416;SDS011;1219;48.736;9.330;2023-05-24T15:16:19;4.90;;;3.23;;
2416;SDS011;1219;48.736;9.330;2023-05-24T15:18:45;7.73;;;3.60;;
2416;SDS011;1219;48.736;9.330;2023-05-24T15:21:11;5.43;;;2.63;;
2416;SDS011;1219;48.736;9.330;2023-05-24T15:23:37;4.90;;;3.33;;
2416;SDS011;1219;48.736;9.330;2023-05-24T15:26:03;7.90;;;3.40;;
2416;SDS011;1219;48.736;9.330;2023-05-24T15:28:29;7.40;;;2.63;;
2416;SDS011;1219;48.736;9.330;2023-05-24T15:30:55;3.57;;;2.20;;